Time;durP1;ratioP1;P1;durP2;ratioP2;P2;SDS_P1;SDS_P2;PMS_P1;PMS_P2;Temp;Humidity;BMP_temperature;BMP_pressure;BME280_temperature;BME280_humidity;BME280_pressure;Samples;Min_cycle;Max_cycle;Signal;HPM_P1;HPM_P2
2021/09/09 00:00:04;;;;;;;;;;;;;;;13.54;68.69;102399.06;1705092;84;20573;-80
2021/09/09 00:02:37;;;;;;;;;;;;;;;13.54;68.72;102399.93;1706481;84;20184;-81
2021/09/09 00:05:10;;;;;;;;;;;;;;;13.53;69.05;102394.05;1706725;84;20349;-80
2021/09/09 00:07:42;;;;;;;;;;;;;;;13.51;69.15;102389.23;1697166;81;20266;-76
2021/09/09 00:10:14;;;;;;;;;;;;;;;13.49;69.45;102391.95;1684284;84;20563;-77
2021/09/09 00:12:47;;;;;;;;;;;;;;;13.47;69.70;102393.60;1678366;85;20611;-75
2021/09/09 00:15:20;;;;;;;;;;;;;;;13.44;69.85;102388.48;1678344;85;20529;-78
2021/09/09 00:17:52;;;;;;;;;;;;;;;13.47;70.08;102396.39;1678423;85;20607;-76
2021/09/09 00:20:24;;;;;;;;;;;;;;;13.51;70.09;102391.19;1678352;85;20195;-77
2021/09/09 00:22:55;;;;;;;;;;;;;;;13.58;70.19;102383.55;1678504;85;20254;-75
2021/09/09 00:25:27;;;;;;;;;;;;;;;13.66;70.14;102391.05;1678525;85;20266;-74
2021/09/09 00:27:59;;;;;;;;;;;;;;;13.70;69.51;102389.45;1678612;85;20198;-78
2021/09/09 00:30:32;;;;;;;;;;;;;;;13.71;69.10;102391.19;1677650;85;20310;-73
2021/09/09 00:33:06;;;;;;;;;;;;;;;13.72;68.59;102394.27;1678515;85;20191;-74
2021/09/09 00:35:37;;;;;;;;;;;;;;;13.69;68.26;102389.16;1678583;85;20187;-77
2021/09/09 00:38:09;;;;;;;;;;;;;;;13.67;68.16;102386.30;1678552;85;20227;-77
2021/09/09 00:40:40;;;;;;;;;;;;;;;13.65;67.87;102389.34;1678641;85;20195;-80
2021/09/09 00:43:13;;;;;;;;;;;;;;;13.66;67.46;102386.00;1678543;85;20202;-77
2021/09/09 00:45:55;;;;;;;;;;;;;;;13.65;67.15;102389.34;1678778;85;20191;-81
2021/09/09 00:48:26;;;;;;;;;;;;;;;13.67;66.85;102385.77;1678652;85;20227;-75
2021/09/09 00:50:59;;;;;;;;;;;;;;;13.71;66.76;102388.39;1678342;85;20564;-79
2021/09/09 00:53:30;;;;;;;;;;;;;;;13.75;66.50;102385.41;1678436;85;20175;-80
2021/09/09 00:56:03;;;;;;;;;;;;;;;13.77;66.68;102383.25;1677595;85;20623;-80
2021/09/09 00:58:36;;;;;;;;;;;;;;;13.77;66.78;102377.66;1678509;85;20266;-73
2021/09/09 01:01:08;;;;;;;;;;;;;;;13.77;66.74;102380.45;1678593;85;20238;-78
2021/09/09 01:03:40;;;;;;;;;;;;;;;13.73;66.78;102377.83;1678642;85;20199;-80
2021/09/09 01:06:11;;;;;;;;;;;;;;;13.69;66.70;102377.98;1678792;85;20227;-78
2021/09/09 01:08:43;;;;;;;;;;;;;;;13.66;66.83;102376.22;1681465;85;20239;-77
2021/09/09 01:11:15;;;;;;;;;;;;;;;13.62;66.88;102380.04;1683397;85;20195;-80
2021/09/09 01:13:50;;;;;;;;;;;;;;;13.56;66.88;102376.81;1683472;85;20258;-78
2021/09/09 01:16:22;;;;;;;;;;;;;;;13.52;66.87;102372.78;1683836;84;20560;-78
2021/09/09 01:18:55;;;;;;;;;;;;;;;13.49;66.88;102373.80;1693603;83;20559;-79
2021/09/09 01:21:27;;;;;;;;;;;;;;;13.50;66.93;102372.18;1681663;85;20241;-80
2021/09/09 01:24:00;;;;;;;;;;;;;;;13.53;66.82;102373.11;1681658;85;20217;-79
2021/09/09 01:26:32;;;;;;;;;;;;;;;13.57;66.54;102366.51;1681857;85;20290;-79
2021/09/09 01:29:04;;;;;;;;;;;;;;;13.61;66.25;102362.99;1678594;85;20187;-80
2021/09/09 01:31:36;;;;;;;;;;;;;;;13.66;66.00;102363.66;1681755;85;20236;-81
2021/09/09 01:34:07;;;;;;;;;;;;;;;13.70;65.73;102365.72;1681851;85;20282;-79
2021/09/09 01:36:39;;;;;;;;;;;;;;;13.69;65.40;102364.03;1681614;85;20294;-79
2021/09/09 01:39:11;;;;;;;;;;;;;;;13.70;65.55;102366.29;1681731;85;20551;-80
2021/09/09 01:41:43;;;;;;;;;;;;;;;13.70;65.74;102353.73;1689801;84;20184;-79
2021/09/09 01:44:14;;;;;;;;;;;;;;;13.68;65.64;102358.14;1688435;84;20258;-80
2021/09/09 01:46:46;;;;;;;;;;;;;;;13.64;65.66;102356.91;1683149;85;20592;-80
2021/09/09 01:49:18;;;;;;;;;;;;;;;13.60;65.79;102358.50;1683285;85;20183;-79
2021/09/09 01:51:50;;;;;;;;;;;;;;;13.57;65.55;102353.38;1682974;85;20615;-79
2021/09/09 01:54:22;;;;;;;;;;;;;;;13.54;65.19;102348.83;1683137;85;20203;-79
2021/09/09 01:56:53;;;;;;;;;;;;;;;13.51;65.16;102350.16;1683150;85;20264;-79
2021/09/09 01:59:25;;;;;;;;;;;;;;;13.49;64.90;102353.73;1661960;85;20254;-80
2021/09/09 02:01:56;;;;;;;;;;;;;;;13.47;64.66;102350.34;1683022;85;20283;-80
2021/09/09 02:04:29;;;;;;;;;;;;;;;13.46;64.62;102350.02;1683018;85;20516;-79
2021/09/09 02:07:06;;;;;;;;;;;;;;;13.50;64.41;102354.60;1683035;85;20227;-82
2021/09/09 02:09:40;;;;;;;;;;;;;;;13.55;64.35;102348.59;1683119;85;20674;-81
2021/09/09 02:12:12;;;;;;;;;;;;;;;13.60;63.95;102349.27;1683027;85;20624;-81
2021/09/09 02:14:45;;;;;;;;;;;;;;;13.59;63.69;102351.22;1683260;85;20254;-80
2021/09/09 02:17:16;;;;;;;;;;;;;;;13.61;63.64;102350.96;1681742;85;20587;-81
2021/09/09 02:19:48;;;;;;;;;;;;;;;13.61;63.57;102351.83;1682961;85;20262;-80
2021/09/09 02:22:19;;;;;;;;;;;;;;;13.57;63.41;102349.20;1683117;85;20270;-80
2021/09/09 02:24:51;;;;;;;;;;;;;;;13.56;63.98;102347.50;1683056;85;20179;-80
2021/09/09 02:27:24;;;;;;;;;;;;;;;13.56;63.91;102343.88;1683009;85;20600;-75
2021/09/09 02:29:56;;;;;;;;;;;;;;;13.54;63.86;102341.85;1682990;85;20262;-75
2021/09/09 02:32:27;;;;;;;;;;;;;;;13.49;64.17;102340.31;1683198;85;20206;-79
2021/09/09 02:35:06;;;;;;;;;;;;;;;13.43;64.37;102342.14;1683494;85;20295;-82
2021/09/09 02:37:46;;;;;;;;;;;;;;;13.40;64.72;102347.34;1683179;85;20250;-84
2021/09/09 02:40:27;;;;;;;;;;;;;;;13.33;64.85;102344.64;1683184;85;20262;-85
2021/09/09 02:43:00;;;;;;;;;;;;;;;13.27;64.99;102344.20;1683542;85;20282;-86
2021/09/09 02:45:32;;;;;;;;;;;;;;;13.17;65.18;102352.31;1683405;85;20354;-84
2021/09/09 02:48:05;;;;;;;;;;;;;;;13.09;65.45;102352.62;1683259;85;20520;-85
2021/09/09 02:50:37;;;;;;;;;;;;;;;13.02;65.76;102349.64;1683325;85;20258;-81
2021/09/09 02:53:10;;;;;;;;;;;;;;;12.93;65.96;102351.87;1683104;85;20572;-84
2021/09/09 02:55:41;;;;;;;;;;;;;;;12.87;66.25;102346.37;1683337;85;20247;-81
2021/09/09 02:58:14;;;;;;;;;;;;;;;12.79;66.40;102350.35;1682962;85;20551;-83
2021/09/09 03:00:45;;;;;;;;;;;;;;;12.72;66.72;102357.09;1683340;85;20322;-85
2021/09/09 03:03:20;;;;;;;;;;;;;;;12.65;66.95;102352.98;1683074;85;20262;-84
2021/09/09 03:05:51;;;;;;;;;;;;;;;12.60;67.11;102354.21;1683157;85;20271;-83
2021/09/09 03:08:22;;;;;;;;;;;;;;;12.55;67.34;102359.66;1683333;85;20556;-82
2021/09/09 03:10:55;;;;;;;;;;;;;;;12.54;67.54;102368.24;1684651;85;20183;-82
2021/09/09 03:13:27;;;;;;;;;;;;;;;12.53;67.75;102363.76;1685475;85;20190;-84
2021/09/09 03:16:00;;;;;;;;;;;;;;;12.55;67.88;102360.19;1685757;85;20230;-83
2021/09/09 03:18:32;;;;;;;;;;;;;;;12.62;68.04;102362.34;1685788;85;20274;-81
2021/09/09 03:21:11;;;;;;;;;;;;;;;12.70;67.87;102366.20;1685899;85;20218;-79
2021/09/09 03:23:43;;;;;;;;;;;;;;;12.73;67.58;102367.15;1683071;85;20183;-81
2021/09/09 03:26:15;;;;;;;;;;;;;;;12.74;67.44;102366.05;1685956;85;20257;-81
2021/09/09 03:28:48;;;;;;;;;;;;;;;12.72;67.27;102362.10;1685856;85;20197;-82
2021/09/09 03:31:19;;;;;;;;;;;;;;;12.69;67.29;102365.37;1686332;85;20262;-88
2021/09/09 03:33:51;;;;;;;;;;;;;;;12.62;67.42;102366.00;1685853;85;20297;-87
2021/09/09 03:36:23;;;;;;;;;;;;;;;12.55;67.68;102374.12;1685829;85;20258;-80
2021/09/09 03:38:55;;;;;;;;;;;;;;;12.50;67.78;102367.86;1685742;85;20258;-81
2021/09/09 03:41:26;;;;;;;;;;;;;;;12.43;67.89;102368.48;1685612;84;20401;-81
2021/09/09 03:43:58;;;;;;;;;;;;;;;12.37;68.05;102365.75;1675708;85;20296;-83
2021/09/09 03:46:30;;;;;;;;;;;;;;;12.33;68.14;102370.94;1681173;84;20785;-74
2021/09/09 03:49:04;;;;;;;;;;;;;;;12.29;68.27;102378.04;1675446;85;20241;-75
2021/09/09 03:51:39;;;;;;;;;;;;;;;12.25;68.33;102379.61;1678354;85;20201;-85
2021/09/09 03:54:11;;;;;;;;;;;;;;;12.25;68.60;102374.03;1679482;84;20453;-72
2021/09/09 03:56:46;;;;;;;;;;;;;;;12.30;68.80;102376.95;1681237;84;20799;-72
2021/09/09 03:59:18;;;;;;;;;;;;;;;12.38;68.85;102377.20;1681516;85;20539;-73
2021/09/09 04:01:50;;;;;;;;;;;;;;;12.46;68.88;102381.10;1676874;84;20296;-76
2021/09/09 04:04:27;;;;;;;;;;;;;;;12.54;68.70;102384.41;1683294;84;20302;-86
2021/09/09 04:07:00;;;;;;;;;;;;;;;12.62;68.36;102387.43;1683859;84;20183;-82
2021/09/09 04:09:37;;;;;;;;;;;;;;;12.69;68.20;102377.91;1682138;84;20234;-75
2021/09/09 04:12:08;;;;;;;;;;;;;;;12.74;67.99;102376.68;1681167;85;20535;-78
2021/09/09 04:14:41;;;;;;;;;;;;;;;12.78;66.92;102377.06;1669637;84;20198;-78
2021/09/09 04:17:14;;;;;;;;;;;;;;;12.82;66.15;102375.48;1682542;85;20219;-76
2021/09/09 04:19:47;;;;;;;;;;;;;;;12.87;65.43;102377.03;1683079;85;20302;-78
2021/09/09 04:22:21;;;;;;;;;;;;;;;12.93;66.00;102379.75;1681312;85;20590;-81
2021/09/09 04:24:53;;;;;;;;;;;;;;;12.98;65.11;102379.08;1674172;85;20285;-80
2021/09/09 04:27:25;;;;;;;;;;;;;;;13.04;64.67;102380.39;1669118;85;20191;-80
2021/09/09 04:29:57;;;;;;;;;;;;;;;13.16;64.35;102386.02;1665154;85;20262;-76
2021/09/09 04:32:28;;;;;;;;;;;;;;;13.26;63.54;102382.13;1693571;83;20194;-79
2021/09/09 04:35:00;;;;;;;;;;;;;;;13.37;62.37;102380.76;1648993;85;20238;-82
2021/09/09 04:37:31;;;;;;;;;;;;;;;13.49;61.79;102380.25;1647074;85;20226;-80
2021/09/09 04:40:04;;;;;;;;;;;;;;;13.60;61.26;102378.05;1650357;86;20228;-81
2021/09/09 04:42:35;;;;;;;;;;;;;;;13.73;60.74;102382.02;1672628;85;20181;-82
2021/09/09 04:45:08;;;;;;;;;;;;;;;13.85;60.77;102385.67;1669724;85;20182;-79
2021/09/09 04:47:39;;;;;;;;;;;;;;;13.98;61.53;102382.66;1704613;83;20263;-83
2021/09/09 04:50:12;;;;;;;;;;;;;;;14.11;60.46;102382.41;1676901;85;20538;-82
2021/09/09 04:52:46;;;;;;;;;;;;;;;14.24;60.56;102380.80;1679677;85;20242;-80
2021/09/09 04:55:18;;;;;;;;;;;;;;;14.39;60.28;102379.78;1678626;85;20237;-80
2021/09/09 04:57:50;;;;;;;;;;;;;;;14.60;60.18;102374.94;1687308;83;20180;-79
2021/09/09 05:00:21;;;;;;;;;;;;;;;15.04;59.32;102379.80;1697611;83;20193;-84
2021/09/09 05:02:53;;;;;;;;;;;;;;;15.62;57.80;102380.44;1694375;83;20262;-81
2021/09/09 05:05:25;;;;;;;;;;;;;;;16.20;56.62;102376.66;1683624;85;20210;-80
2021/09/09 05:07:58;;;;;;;;;;;;;;;16.82;56.01;102373.41;1692327;83;20235;-76
2021/09/09 05:10:30;;;;;;;;;;;;;;;17.44;53.54;102362.68;1684745;83;20208;-81
2021/09/09 05:13:01;;;;;;;;;;;;;;;18.06;51.52;102368.89;1688950;83;20189;-81
2021/09/09 05:15:35;;;;;;;;;;;;;;;18.68;49.40;102363.42;1746768;81;20242;-78
2021/09/09 05:18:07;;;;;;;;;;;;;;;19.24;46.75;102368.19;1734004;81;20265;-84
2021/09/09 05:20:41;;;;;;;;;;;;;;;19.70;46.15;102362.95;1734117;81;20312;-80
2021/09/09 05:23:15;;;;;;;;;;;;;;;20.10;45.62;102356.79;1734792;79;20211;-78
2021/09/09 05:25:46;;;;;;;;;;;;;;;20.39;45.46;102366.36;1691890;83;20549;-73
2021/09/09 05:28:18;;;;;;;;;;;;;;;20.65;44.12;102362.34;1725664;82;20190;-75
2021/09/09 05:30:50;;;;;;;;;;;;;;;20.92;43.50;102363.42;1720638;82;20215;-75
2021/09/09 05:33:21;;;;;;;;;;;;;;;21.14;43.56;102351.16;1733016;82;20194;-74
2021/09/09 05:35:53;;;;;;;;;;;;;;;21.39;42.52;102351.86;1718972;82;20239;-81
2021/09/09 05:38:25;;;;;;;;;;;;;;;21.63;41.10;102352.02;1719626;82;20187;-77
2021/09/09 05:40:56;;;;;;;;;;;;;;;21.84;40.37;102352.16;1720096;83;20195;-76
2021/09/09 05:43:32;;;;;;;;;;;;;;;22.07;40.50;102352.82;1720212;82;20372;-73
2021/09/09 05:46:04;;;;;;;;;;;;;;;22.17;39.37;102349.88;1721389;82;20186;-74
2021/09/09 05:48:35;;;;;;;;;;;;;;;22.32;38.30;102348.33;1739686;82;20195;-74
2021/09/09 05:51:07;;;;;;;;;;;;;;;22.51;37.74;102352.98;1752490;82;20619;-74
2021/09/09 05:53:40;;;;;;;;;;;;;;;22.64;38.01;102350.85;1752523;81;20343;-79
2021/09/09 05:56:11;;;;;;;;;;;;;;;22.78;38.05;102347.56;1752479;82;20388;-77
2021/09/09 05:58:43;;;;;;;;;;;;;;;22.95;37.03;102342.81;1752696;82;20261;-75
2021/09/09 06:01:14;;;;;;;;;;;;;;;23.08;37.12;102343.49;1752599;82;20253;-75
2021/09/09 06:03:47;;;;;;;;;;;;;;;23.17;37.59;102335.45;1752526;82;20670;-77
2021/09/09 06:06:19;;;;;;;;;;;;;;;23.23;36.90;102339.09;1752597;82;20198;-78
2021/09/09 06:08:52;;;;;;;;;;;;;;;23.23;37.31;102338.49;1752885;82;20314;-79
2021/09/09 06:11:24;;;;;;;;;;;;;;;23.35;37.02;102340.90;1752503;82;20238;-75
2021/09/09 06:13:56;;;;;;;;;;;;;;;23.37;37.71;102345.13;1752616;80;20194;-76
2021/09/09 06:16:29;;;;;;;;;;;;;;;23.34;37.65;102339.22;1752519;80;20209;-76
2021/09/09 06:19:02;;;;;;;;;;;;;;;23.42;37.85;102343.60;1752546;82;20194;-77
2021/09/09 06:21:35;;;;;;;;;;;;;;;23.49;37.91;102341.81;1752544;80;20201;-76
2021/09/09 06:24:07;;;;;;;;;;;;;;;23.67;37.81;102337.57;1753679;81;20356;-76
2021/09/09 06:26:38;;;;;;;;;;;;;;;23.85;36.74;102338.69;1763802;81;20194;-78
2021/09/09 06:29:10;;;;;;;;;;;;;;;24.02;35.98;102339.83;1763850;81;20265;-78
2021/09/09 06:31:41;;;;;;;;;;;;;;;24.09;36.37;102345.13;1763885;81;20229;-77
2021/09/09 06:34:15;;;;;;;;;;;;;;;24.20;36.35;102341.78;1764093;80;20627;-76
2021/09/09 06:36:47;;;;;;;;;;;;;;;24.41;35.90;102351.64;1763795;81;20233;-75
2021/09/09 06:39:20;;;;;;;;;;;;;;;24.47;34.78;102350.39;1764069;81;20261;-76
2021/09/09 06:41:54;;;;;;;;;;;;;;;24.38;35.31;102350.00;1763927;81;20225;-75
2021/09/09 06:44:26;;;;;;;;;;;;;;;24.38;35.54;102352.84;1763949;81;20609;-75
2021/09/09 06:46:58;;;;;;;;;;;;;;;24.41;35.57;102356.47;1763846;80;20273;-76
2021/09/09 06:49:32;;;;;;;;;;;;;;;24.42;35.44;102349.06;1763991;81;20626;-76
2021/09/09 06:52:05;;;;;;;;;;;;;;;24.39;35.93;102349.67;1763876;81;20197;-72
2021/09/09 06:54:37;;;;;;;;;;;;;;;24.42;36.26;102350.48;1763889;81;20265;-74
2021/09/09 06:57:09;;;;;;;;;;;;;;;24.40;36.23;102351.38;1763982;80;20631;-74
2021/09/09 06:59:41;;;;;;;;;;;;;;;24.25;36.20;102355.08;1763936;81;20554;-74
2021/09/09 07:02:12;;;;;;;;;;;;;;;24.14;36.82;102352.14;1763855;81;20269;-73
2021/09/09 07:04:45;;;;;;;;;;;;;;;24.09;36.70;102350.21;1763895;81;20269;-74
2021/09/09 07:07:16;;;;;;;;;;;;;;;24.09;37.31;102350.81;1757561;81;20253;-77
2021/09/09 07:09:48;;;;;;;;;;;;;;;24.20;38.54;102355.16;1705667;84;20603;-79
2021/09/09 07:12:22;;;;;;;;;;;;;;;24.32;37.83;102353.50;1705747;84;20191;-74
2021/09/09 07:14:54;;;;;;;;;;;;;;;24.31;38.04;102360.94;1705589;84;20545;-76
2021/09/09 07:17:26;;;;;;;;;;;;;;;24.25;37.89;102356.50;1705614;84;20211;-78
2021/09/09 07:20:00;;;;;;;;;;;;;;;24.18;37.40;102358.87;1705845;83;20223;-79
2021/09/09 07:22:31;;;;;;;;;;;;;;;23.93;38.09;102360.72;1705705;84;20191;-81
2021/09/09 07:25:03;;;;;;;;;;;;;;;23.69;37.99;102361.36;1705811;84;20195;-77
2021/09/09 07:27:35;;;;;;;;;;;;;;;23.56;39.08;102356.45;1705694;84;20211;-76
2021/09/09 07:30:08;;;;;;;;;;;;;;;23.60;39.73;102356.95;1705633;84;20215;-75
2021/09/09 07:32:40;;;;;;;;;;;;;;;23.61;38.90;102360.08;1705736;84;20584;-76
2021/09/09 07:35:12;;;;;;;;;;;;;;;23.59;38.38;102360.12;1705753;84;20548;-76
2021/09/09 07:37:46;;;;;;;;;;;;;;;23.55;39.00;102364.70;1705779;84;20532;-78
2021/09/09 07:40:18;;;;;;;;;;;;;;;23.53;38.58;102364.17;1705814;84;20228;-80
2021/09/09 07:42:50;;;;;;;;;;;;;;;23.49;38.47;102365.37;1705630;83;20231;-78
2021/09/09 07:45:22;;;;;;;;;;;;;;;23.42;37.60;102359.80;1705796;84;20179;-78
2021/09/09 07:47:53;;;;;;;;;;;;;;;23.27;37.60;102359.99;1705639;83;20231;-78
2021/09/09 07:50:29;;;;;;;;;;;;;;;23.20;38.07;102362.36;1705698;84;20194;-82
2021/09/09 07:53:01;;;;;;;;;;;;;;;23.16;36.41;102363.55;1705598;84;20640;-76
2021/09/09 07:55:33;;;;;;;;;;;;;;;22.97;36.04;102358.38;1705765;84;20211;-77
2021/09/09 07:58:05;;;;;;;;;;;;;;;22.83;36.55;102350.34;1705747;83;20286;-78
2021/09/09 08:00:37;;;;;;;;;;;;;;;22.86;36.57;102353.15;1705671;84;20212;-78
2021/09/09 08:03:09;;;;;;;;;;;;;;;22.83;35.81;102348.06;1705685;84;20683;-77
2021/09/09 08:05:41;;;;;;;;;;;;;;;22.76;35.23;102347.59;1705659;83;20243;-79
2021/09/09 08:08:13;;;;;;;;;;;;;;;22.65;35.75;102346.02;1705973;84;20184;-78
2021/09/09 08:10:45;;;;;;;;;;;;;;;22.70;35.96;102340.30;1706444;84;20266;-78
2021/09/09 08:13:18;;;;;;;;;;;;;;;22.77;35.30;102347.86;1706437;84;20533;-77
2021/09/09 08:15:50;;;;;;;;;;;;;;;22.82;34.90;102342.13;1706354;84;20580;-75
2021/09/09 08:18:22;;;;;;;;;;;;;;;22.83;35.02;102336.73;1706486;84;20597;-78
2021/09/09 08:20:54;;;;;;;;;;;;;;;22.89;35.03;102343.47;1706465;84;20231;-77
2021/09/09 08:23:26;;;;;;;;;;;;;;;22.89;34.80;102334.97;1706409;84;20296;-76
2021/09/09 08:25:59;;;;;;;;;;;;;;;22.84;35.18;102332.75;1706533;84;20300;-75
2021/09/09 08:28:31;;;;;;;;;;;;;;;22.78;35.79;102331.13;1706437;84;20207;-80
2021/09/09 08:31:02;;;;;;;;;;;;;;;22.81;35.00;102329.12;1706498;84;20223;-79
2021/09/09 08:33:34;;;;;;;;;;;;;;;22.87;33.23;102334.41;1706530;84;20187;-76
2021/09/09 08:36:06;;;;;;;;;;;;;;;22.88;33.25;102331.86;1706549;84;20299;-78
2021/09/09 08:38:38;;;;;;;;;;;;;;;22.86;33.43;102331.30;1706403;84;20187;-78
2021/09/09 08:41:09;;;;;;;;;;;;;;;22.85;34.18;102329.62;1706384;84;20196;-77
2021/09/09 08:43:42;;;;;;;;;;;;;;;22.86;33.56;102324.22;1706486;84;20239;-77
2021/09/09 08:46:16;;;;;;;;;;;;;;;22.88;33.03;102321.95;1706508;84;20255;-76
2021/09/09 08:48:49;;;;;;;;;;;;;;;22.87;32.47;102324.48;1706553;84;20250;-76
2021/09/09 08:51:21;;;;;;;;;;;;;;;22.89;32.72;102321.36;1706418;84;20215;-80
2021/09/09 08:53:52;;;;;;;;;;;;;;;22.89;31.48;102317.96;1706717;84;20261;-76
2021/09/09 08:56:24;;;;;;;;;;;;;;;22.85;31.46;102322.53;1706556;84;20300;-77
2021/09/09 08:58:55;;;;;;;;;;;;;;;22.83;31.65;102316.34;1706469;84;20296;-80
2021/09/09 09:01:29;;;;;;;;;;;;;;;22.82;31.70;102312.38;1706487;84;20275;-77
2021/09/09 09:04:06;;;;;;;;;;;;;;;22.77;31.23;102320.94;1706650;84;20183;-77
2021/09/09 09:06:38;;;;;;;;;;;;;;;22.68;31.28;102313.67;1706538;84;20613;-79
2021/09/09 09:09:13;;;;;;;;;;;;;;;22.61;31.35;102304.70;1706172;84;20608;-77
2021/09/09 09:11:45;;;;;;;;;;;;;;;22.58;31.31;102303.04;1702757;84;20223;-78
2021/09/09 09:14:19;;;;;;;;;;;;;;;22.55;31.62;102307.91;1702662;84;20215;-77
2021/09/09 09:16:56;;;;;;;;;;;;;;;22.52;31.83;102309.91;1702562;84;20189;-77
2021/09/09 09:19:31;;;;;;;;;;;;;;;22.48;31.76;102301.17;1702652;84;20191;-79
2021/09/09 09:22:11;;;;;;;;;;;;;;;22.49;31.91;102291.53;1702310;84;20255;-78
2021/09/09 09:24:49;;;;;;;;;;;;;;;22.56;32.00;102294.02;1702701;84;20199;-76
2021/09/09 09:27:22;;;;;;;;;;;;;;;22.63;30.98;102292.52;1702654;83;20180;-80
2021/09/09 09:30:06;;;;;;;;;;;;;;;22.65;30.96;102287.94;1702645;84;20582;-76
2021/09/09 09:32:49;;;;;;;;;;;;;;;22.68;31.45;102290.19;1702713;84;20187;-78
2021/09/09 09:35:21;;;;;;;;;;;;;;;22.72;31.20;102290.69;1701879;84;20278;-77
2021/09/09 09:38:05;;;;;;;;;;;;;;;22.77;31.27;102278.44;1702674;84;20223;-77
2021/09/09 09:40:46;;;;;;;;;;;;;;;22.79;31.25;102287.50;1702749;84;20209;-76
2021/09/09 09:43:19;;;;;;;;;;;;;;;22.72;30.91;102296.35;1702656;84;20549;-76
2021/09/09 09:45:52;;;;;;;;;;;;;;;22.66;30.70;102290.48;1675675;84;20223;-74
2021/09/09 09:48:32;;;;;;;;;;;;;;;22.66;30.82;102290.48;1702741;84;20191;-78
2021/09/09 09:51:06;;;;;;;;;;;;;;;22.64;29.44;102291.92;1702938;84;20208;-75
2021/09/09 09:53:38;;;;;;;;;;;;;;;22.56;29.30;102282.69;1702823;84;20188;-75
2021/09/09 09:56:10;;;;;;;;;;;;;;;22.50;30.38;102284.71;1702663;84;20652;-75
2021/09/09 09:58:41;;;;;;;;;;;;;;;22.50;29.92;102286.72;1702727;83;20196;-77
2021/09/09 10:01:13;;;;;;;;;;;;;;;22.49;29.53;102293.53;1702686;84;20219;-74
2021/09/09 10:03:45;;;;;;;;;;;;;;;22.47;29.26;102284.47;1702777;83;20239;-77
2021/09/09 10:06:18;;;;;;;;;;;;;;;22.48;29.20;102281.91;1698847;83;20195;-77
2021/09/09 10:08:49;;;;;;;;;;;;;;;22.53;28.59;102276.19;1702706;84;20195;-75
2021/09/09 10:11:21;;;;;;;;;;;;;;;22.59;28.86;102278.67;1702680;84;20591;-75
2021/09/09 10:13:52;;;;;;;;;;;;;;;22.65;29.11;102278.88;1702770;84;20548;-77
2021/09/09 10:16:27;;;;;;;;;;;;;;;22.72;28.93;102281.33;1702538;84;20199;-76
2021/09/09 10:19:00;;;;;;;;;;;;;;;22.75;28.86;102277.31;1702586;84;20195;-77
2021/09/09 10:21:39;;;;;;;;;;;;;;;22.75;29.07;102270.82;1702791;84;20267;-76
2021/09/09 10:24:19;;;;;;;;;;;;;;;22.76;28.69;102272.51;1702916;84;20199;-74
2021/09/09 10:26:50;;;;;;;;;;;;;;;22.69;29.17;102259.29;1702775;84;20260;-75
2021/09/09 10:29:47;;;;;;;;;;;;;;;22.67;29.50;102265.25;1702603;84;20238;-78
2021/09/09 10:32:36;;;;;;;;;;;;;;;22.67;29.60;102253.91;1702751;84;20234;-76
2021/09/09 10:35:26;;;;;;;;;;;;;;;22.69;30.11;102252.20;1702916;84;20219;-77
2021/09/09 10:37:57;;;;;;;;;;;;;;;22.71;29.72;102247.06;1702792;83;20271;-78
2021/09/09 10:40:35;;;;;;;;;;;;;;;22.75;29.60;102242.48;1702740;84;20187;-78
2021/09/09 10:43:16;;;;;;;;;;;;;;;22.82;29.68;102240.13;1702861;83;20219;-78
2021/09/09 10:45:48;;;;;;;;;;;;;;;22.86;29.23;102241.21;1702714;84;20191;-75
2021/09/09 10:48:23;;;;;;;;;;;;;;;22.89;28.94;102247.67;1702593;84;20235;-79
2021/09/09 10:51:01;;;;;;;;;;;;;;;22.86;28.84;102234.95;1674904;84;20187;-77
2021/09/09 10:53:42;;;;;;;;;;;;;;;22.85;29.74;102231.03;1702727;84;20231;-75
2021/09/09 10:56:19;;;;;;;;;;;;;;;22.85;28.47;102225.36;1702587;84;20192;-74
2021/09/09 10:59:20;;;;;;;;;;;;;;;22.85;28.34;102229.61;1702714;84;20219;-75
2021/09/09 11:01:49;;;;;;;;;;;;;;;22.87;27.67;102230.14;1702697;84;20228;-79
2021/09/09 11:04:34;;;;;;;;;;;;;;;22.91;27.72;102222.73;1702780;84;20196;-77
2021/09/09 11:07:21;;;;;;;;;;;;;;;22.90;27.74;102218.18;1702555;84;20248;-76
2021/09/09 11:10:01;;;;;;;;;;;;;;;22.90;27.85;102219.59;1702419;84;20195;-76
2021/09/09 11:12:40;;;;;;;;;;;;;;;22.93;27.80;102210.50;1705457;84;20283;-77
2021/09/09 11:15:14;;;;;;;;;;;;;;;22.95;27.18;102205.36;1706451;84;20211;-77
2021/09/09 11:17:49;;;;;;;;;;;;;;;22.97;27.34;102196.00;1706308;84;20555;-75
2021/09/09 11:20:22;;;;;;;;;;;;;;;22.99;27.45;102200.18;1703541;84;20187;-80
2021/09/09 11:22:54;;;;;;;;;;;;;;;22.99;27.49;102194.52;1683169;84;20193;-78
2021/09/09 11:25:25;;;;;;;;;;;;;;;23.03;27.49;102187.69;1706550;84;20645;-76
2021/09/09 11:27:57;;;;;;;;;;;;;;;23.03;27.68;102185.67;1703158;84;20560;-78
2021/09/09 11:30:28;;;;;;;;;;;;;;;23.06;27.77;102177.13;1702956;84;20195;-79
2021/09/09 11:33:06;;;;;;;;;;;;;;;23.03;27.69;102180.00;1706677;84;20271;-79
2021/09/09 11:35:37;;;;;;;;;;;;;;;23.03;28.32;102176.34;1706464;84;20254;-77
2021/09/09 11:38:09;;;;;;;;;;;;;;;22.98;28.90;102173.59;1706393;84;20195;-77
2021/09/09 11:40:41;;;;;;;;;;;;;;;22.96;28.09;102169.63;1698927;84;20342;-80
2021/09/09 11:43:15;;;;;;;;;;;;;;;23.00;27.89;102164.19;1692669;84;20254;-77
2021/09/09 11:45:55;;;;;;;;;;;;;;;23.00;28.20;102154.27;1693229;84;20258;-75
2021/09/09 11:48:29;;;;;;;;;;;;;;;22.99;28.41;102160.50;1691638;84;20258;-78
2021/09/09 11:51:00;;;;;;;;;;;;;;;22.98;28.15;102163.66;1693251;84;20611;-76
2021/09/09 11:53:35;;;;;;;;;;;;;;;22.97;28.76;102154.90;1692247;84;20219;-77
2021/09/09 11:56:10;;;;;;;;;;;;;;;22.96;28.99;102151.21;1694716;84;20255;-77
2021/09/09 11:58:43;;;;;;;;;;;;;;;22.96;28.69;102154.61;1706005;84;20302;-77
2021/09/09 12:01:15;;;;;;;;;;;;;;;23.00;28.04;102153.70;1706523;84;20276;-77
2021/09/09 12:03:47;;;;;;;;;;;;;;;22.98;29.11;102146.66;1706579;84;20239;-76
2021/09/09 12:06:22;;;;;;;;;;;;;;;22.90;28.63;102135.44;1706402;84;20311;-77
2021/09/09 12:08:54;;;;;;;;;;;;;;;22.86;29.01;102144.27;1706423;84;20223;-76
2021/09/09 12:11:26;;;;;;;;;;;;;;;22.87;29.02;102139.46;1706419;84;20204;-76
2021/09/09 12:13:58;;;;;;;;;;;;;;;22.87;28.57;102132.38;1702694;83;20557;-77
2021/09/09 12:16:35;;;;;;;;;;;;;;;22.88;28.54;102127.83;1702700;84;20220;-78
2021/09/09 12:19:10;;;;;;;;;;;;;;;22.91;28.25;102131.45;1702696;84;20216;-79
2021/09/09 12:21:53;;;;;;;;;;;;;;;22.96;28.05;102129.09;1702690;83;20632;-76
2021/09/09 12:24:32;;;;;;;;;;;;;;;22.94;29.03;102128.58;1702728;84;20242;-77
2021/09/09 12:27:04;;;;;;;;;;;;;;;22.88;29.61;102125.55;1702704;84;20198;-77
2021/09/09 12:29:41;;;;;;;;;;;;;;;22.81;29.69;102122.27;1702599;84;20227;-76
2021/09/09 12:32:28;;;;;;;;;;;;;;;22.77;28.48;102125.44;1702626;84;20551;-78
2021/09/09 12:35:17;;;;;;;;;;;;;;;22.78;28.34;102117.20;1702794;84;20556;-77
2021/09/09 12:38:07;;;;;;;;;;;;;;;22.82;26.84;102116.86;1698642;84;20183;-73
2021/09/09 12:40:40;;;;;;;;;;;;;;;22.87;27.00;102113.95;1688716;84;20234;-80
2021/09/09 12:43:31;;;;;;;;;;;;;;;22.90;27.42;102117.58;1688724;83;20299;-84
2021/09/09 12:46:04;;;;;;;;;;;;;;;22.95;27.21;102121.75;1691402;84;20242;-75
2021/09/09 12:48:36;;;;;;;;;;;;;;;22.93;26.79;102115.56;1694749;84;20284;-78
2021/09/09 12:51:08;;;;;;;;;;;;;;;22.94;26.41;102111.57;1696590;84;20266;-81
2021/09/09 12:53:39;;;;;;;;;;;;;;;22.99;26.70;102105.82;1691834;84;20237;-77
2021/09/09 12:56:11;;;;;;;;;;;;;;;23.00;26.92;102101.84;1692126;84;20237;-77
2021/09/09 12:58:45;;;;;;;;;;;;;;;23.02;26.70;102096.12;1690907;84;20239;-77
2021/09/09 13:01:18;;;;;;;;;;;;;;;23.02;26.37;102093.30;1693543;83;20297;-76
2021/09/09 13:03:51;;;;;;;;;;;;;;;23.00;27.04;102090.50;1696786;84;20188;-77
2021/09/09 13:06:23;;;;;;;;;;;;;;;22.99;25.83;102091.66;1691691;84;20229;-78